Time;durP1;ratioP1;P1;durP2;ratioP2;P2;SDS_P1;SDS_P2;PMS_P1;PMS_P2;Temp;Humidity;BMP_temperature;BMP_pressure;BME280_temperature;BME280_humidity;BME280_pressure;Samples;Min_cycle;Max_cycle;Signal;HPM_P1;HPM_P2
2022/08/26 00:00:42;;;;;;;7.38;4.40;;;25.90;41.80;;;;;;5008788;28;20514;-55
2022/08/26 00:03:09;;;;;;;6.22;4.75;;;25.90;41.80;;;;;;5020063;28;20045;-56
2022/08/26 00:05:36;;;;;;;12.68;4.78;;;25.80;41.80;;;;;;5020342;28;20425;-57
2022/08/26 00:08:04;;;;;;;6.05;4.50;;;25.80;41.90;;;;;;5025526;28;20061;-56
2022/08/26 00:10:32;;;;;;;5.50;4.68;;;25.80;42.00;;;;;;5017741;28;20061;-56
2022/08/26 00:13:00;;;;;;;8.65;5.78;;;25.80;42.10;;;;;;5024802;28;20473;-56
2022/08/26 00:15:27;;;;;;;9.88;5.82;;;25.70;41.90;;;;;;5024391;28;20054;-55
2022/08/26 00:17:54;;;;;;;8.60;5.40;;;25.70;41.70;;;;;;5022345;28;20050;-56
2022/08/26 00:20:25;;;;;;;8.75;4.57;;;25.70;41.80;;;;;;5017798;28;20056;-56
2022/08/26 00:22:52;;;;;;;6.68;5.28;;;25.70;42.00;;;;;;5025880;28;20057;-56
2022/08/26 00:25:20;;;;;;;9.85;5.03;;;25.60;42.00;;;;;;5019001;28;20049;-57
2022/08/26 00:27:49;;;;;;;9.10;5.30;;;25.50;41.90;;;;;;5023714;28;20817;-57
2022/08/26 00:30:20;;;;;;;9.02;6.05;;;25.50;42.10;;;;;;5013530;28;20064;-56
2022/08/26 00:32:47;;;;;;;9.65;5.57;;;25.50;42.30;;;;;;5025083;28;20053;-57
2022/08/26 00:35:15;;;;;;;11.38;5.80;;;25.50;42.70;;;;;;5024073;28;20417;-57
2022/08/26 00:37:43;;;;;;;8.68;5.90;;;25.40;42.50;;;;;;5020196;28;20057;-58
2022/08/26 00:40:14;;;;;;;12.63;5.85;;;25.40;42.70;;;;;;5013805;28;20440;-57
2022/08/26 00:42:41;;;;;;;9.05;5.88;;;25.40;42.90;;;;;;5024838;28;20042;-56
2022/08/26 00:45:11;;;;;;;6.90;5.35;;;25.40;43.00;;;;;;5022531;28;20497;-55
2022/08/26 00:47:44;;;;;;;8.50;5.57;;;25.40;43.00;;;;;;5023286;28;20053;-56
2022/08/26 00:50:15;;;;;;;8.63;5.85;;;25.30;43.00;;;;;;5016277;28;20054;-57
2022/08/26 00:52:43;;;;;;;10.25;6.32;;;25.30;43.10;;;;;;5025144;28;20053;-55
2022/08/26 00:55:15;;;;;;;11.35;5.93;;;25.30;43.20;;;;;;5023773;28;20053;-56
2022/08/26 00:57:43;;;;;;;10.05;5.95;;;25.30;43.20;;;;;;5019731;28;20057;-56
2022/08/26 01:00:15;;;;;;;13.23;6.00;;;25.30;43.30;;;;;;5013897;28;20607;-57
2022/08/26 01:02:43;;;;;;;14.15;6.68;;;25.30;43.50;;;;;;5023882;28;20056;-56
2022/08/26 01:05:11;;;;;;;10.23;6.50;;;25.30;43.40;;;;;;5021679;28;20053;-56
2022/08/26 01:07:39;;;;;;;9.32;6.93;;;25.20;43.70;;;;;;5024084;28;20068;-56
2022/08/26 01:10:11;;;;;;;14.45;8.10;;;25.20;43.70;;;;;;5016222;28;20080;-55
2022/08/26 01:12:42;;;;;;;19.15;9.27;;;25.20;43.90;;;;;;5022133;28;20478;-56
2022/08/26 01:15:15;;;;;;;16.45;9.10;;;25.20;44.50;;;;;;5020404;28;20064;-53
2022/08/26 01:17:42;;;;;;;18.35;8.77;;;25.20;44.70;;;;;;5021685;28;20497;-56
2022/08/26 01:20:21;;;;;;;13.15;7.68;;;25.20;44.70;;;;;;5017948;28;20050;-54
2022/08/26 01:22:55;;;;;;;10.23;7.57;;;25.20;44.80;;;;;;5023271;28;20069;-57
2022/08/26 01:25:25;;;;;;;14.48;8.55;;;25.10;45.10;;;;;;5022792;28;20056;-57
2022/08/26 01:27:55;;;;;;;16.95;10.13;;;25.10;45.10;;;;;;5018070;28;20821;-55
2022/08/26 01:30:22;;;;;;;14.60;8.98;;;25.10;45.30;;;;;;5016769;28;20143;-57
2022/08/26 01:32:51;;;;;;;17.63;10.07;;;25.10;45.40;;;;;;5013262;28;20060;-54
2022/08/26 01:35:19;;;;;;;20.27;10.10;;;25.00;45.60;;;;;;5011838;28;20478;-56
2022/08/26 01:37:50;;;;;;;20.10;13.77;;;25.00;45.70;;;;;;5016835;28;20485;-57
2022/08/26 01:40:23;;;;;;;19.63;13.77;;;25.00;46.40;;;;;;5002354;28;20433;-56
2022/08/26 01:42:50;;;;;;;24.52;18.35;;;25.00;46.70;;;;;;5018881;28;20057;-54
2022/08/26 01:45:21;;;;;;;26.73;17.58;;;25.00;47.10;;;;;;5019051;28;20049;-56
2022/08/26 01:47:49;;;;;;;19.27;14.88;;;24.90;47.30;;;;;;5010601;28;20080;-55
2022/08/26 01:50:21;;;;;;;29.58;18.40;;;24.90;47.50;;;;;;5018951;28;20061;-57
2022/08/26 01:52:50;;;;;;;19.75;14.63;;;24.80;47.90;;;;;;5023092;28;20061;-57
2022/08/26 01:55:21;;;;;;;25.92;19.17;;;24.80;48.00;;;;;;5023746;28;20053;-57
2022/08/26 01:57:53;;;;;;;49.17;25.35;;;24.70;48.30;;;;;;5018174;28;20057;-55
2022/08/26 02:00:21;;;;;;;35.88;26.02;;;24.70;49.10;;;;;;5006132;28;20521;-57
2022/08/26 02:03:15;;;;;;;29.65;22.52;;;24.60;49.30;;;;;;5020275;28;20496;-56
2022/08/26 02:05:41;;;;;;;36.30;28.13;;;24.60;49.40;;;;;;5022568;28;20057;-56
2022/08/26 02:08:09;;;;;;;42.45;30.63;;;24.50;49.70;;;;;;5017056;28;20054;-56
2022/08/26 02:10:37;;;;;;;47.42;30.15;;;24.50;50.30;;;;;;5019069;28;20061;-58
2022/08/26 02:13:07;;;;;;;45.30;31.70;;;24.40;50.30;;;;;;5019564;28;20053;-54
2022/08/26 02:15:35;;;;;;;39.05;30.05;;;24.40;50.70;;;;;;5020088;28;20057;-57
2022/08/26 02:18:04;;;;;;;40.20;30.20;;;24.40;50.90;;;;;;5022643;28;20080;-50
2022/08/26 02:20:32;;;;;;;46.75;34.03;;;24.30;51.00;;;;;;5018734;28;20417;-49
2022/08/26 02:22:59;;;;;;;48.53;34.90;;;24.30;51.40;;;;;;5017446;28;20516;-55
2022/08/26 02:25:33;;;;;;;45.60;34.85;;;24.20;51.50;;;;;;5019709;28;20057;-52
2022/08/26 02:28:02;;;;;;;49.33;37.45;;;24.20;51.90;;;;;;5014605;28;20057;-51
2022/08/26 02:30:32;;;;;;;50.55;37.03;;;24.20;51.90;;;;;;5011128;28;20053;-52
2022/08/26 02:33:02;;;;;;;50.20;40.10;;;24.10;52.10;;;;;;5009131;28;20048;-47
2022/08/26 02:35:31;;;;;;;50.65;36.20;;;24.10;52.50;;;;;;5020968;28;20076;-49
2022/08/26 02:37:59;;;;;;;36.65;31.08;;;24.10;52.50;;;;;;5017525;28;20049;-51
2022/08/26 02:40:29;;;;;;;53.28;42.05;;;24.00;52.30;;;;;;5014478;28;20509;-50
2022/08/26 02:42:57;;;;;;;49.20;39.40;;;24.00;53.20;;;;;;5014202;28;20057;-51
2022/08/26 02:45:27;;;;;;;48.85;36.95;;;24.00;53.10;;;;;;5015373;28;20058;-49
2022/08/26 02:47:56;;;;;;;46.10;37.47;;;24.00;53.30;;;;;;5019225;28;20057;-53
2022/08/26 02:50:25;;;;;;;56.60;43.28;;;23.90;53.30;;;;;;5018766;28;20053;-51
2022/08/26 02:52:53;;;;;;;45.75;34.88;;;23.90;53.40;;;;;;5018346;28;20041;-51
2022/08/26 02:55:20;;;;;;;55.20;40.05;;;23.90;53.50;;;;;;5018302;28;20049;-51
2022/08/26 02:57:48;;;;;;;55.60;41.90;;;23.90;53.90;;;;;;5016427;28;20080;-50
2022/08/26 03:00:16;;;;;;;48.28;38.80;;;23.90;54.00;;;;;;5018507;28;20068;-57
2022/08/26 03:02:45;;;;;;;58.33;43.65;;;23.80;54.00;;;;;;5022892;28;20588;-57
2022/08/26 03:05:13;;;;;;;61.97;48.15;;;23.80;54.30;;;;;;5011095;28;20069;-56
2022/08/26 03:07:40;;;;;;;61.83;47.50;;;23.80;54.70;;;;;;5007717;28;20065;-56
2022/08/26 03:10:08;;;;;;;66.28;48.78;;;23.70;54.80;;;;;;5011477;28;20054;-56
2022/08/26 03:12:36;;;;;;;61.70;45.72;;;23.70;55.10;;;;;;5016009;28;20085;-57
2022/08/26 03:15:04;;;;;;;51.72;40.47;;;23.70;55.20;;;;;;5017979;28;20057;-56
2022/08/26 03:17:31;;;;;;;58.65;42.65;;;23.60;55.10;;;;;;5012142;28;20513;-57
2022/08/26 03:20:00;;;;;;;58.97;44.88;;;23.60;55.50;;;;;;5008572;28;20065;-57
2022/08/26 03:22:27;;;;;;;52.95;42.92;;;23.60;55.80;;;;;;5018709;28;20049;-56
2022/08/26 03:24:54;;;;;;;57.13;42.00;;;23.50;55.70;;;;;;5019573;28;20410;-54
2022/08/26 03:27:21;;;;;;;51.50;40.60;;;23.50;55.90;;;;;;5013857;28;20470;-57
2022/08/26 03:32:33;;;;;;;50.53;39.75;;;23.50;56.20;;;;;;5021366;28;20065;-59
2022/08/26 03:35:02;;;;;;;58.65;43.13;;;23.50;56.30;;;;;;5016691;28;20057;-54
2022/08/26 03:37:29;;;;;;;48.25;37.28;;;23.50;57.10;;;;;;5018167;28;20057;-56
2022/08/26 03:39:57;;;;;;;68.78;45.53;;;23.50;56.70;;;;;;5015117;28;20066;-56
2022/08/26 03:42:24;;;;;;;60.63;45.25;;;23.40;56.90;;;;;;5011693;28;20087;-57
2022/08/26 03:44:51;;;;;;;59.58;44.67;;;23.40;57.10;;;;;;5019689;28;20054;-56
2022/08/26 03:47:19;;;;;;;59.85;41.25;;;23.40;57.60;;;;;;5018752;28;20094;-57
2022/08/26 03:49:46;;;;;;;62.13;44.30;;;23.40;57.10;;;;;;5009560;28;20060;-57
2022/08/26 03:52:14;;;;;;;55.15;39.72;;;23.40;57.30;;;;;;5015224;28;20045;-57
2022/08/26 03:54:42;;;;;;;60.03;43.97;;;23.40;57.30;;;;;;5015028;28;20046;-58
2022/08/26 03:57:09;;;;;;;68.65;49.15;;;23.40;57.70;;;;;;5020525;28;20061;-57
2022/08/26 03:59:36;;;;;;;68.25;45.53;;;23.40;57.90;;;;;;5014269;28;20065;-57
2022/08/26 04:02:04;;;;;;;63.78;46.60;;;23.40;57.80;;;;;;5006075;28;20402;-57
2022/08/26 04:04:31;;;;;;;58.65;42.42;;;23.40;57.90;;;;;;5004282;28;20070;-58
2022/08/26 04:06:59;;;;;;;67.20;48.80;;;23.40;57.90;;;;;;5012311;28;20068;-57
2022/08/26 04:09:28;;;;;;;58.30;40.65;;;23.30;57.90;;;;;;5017075;28;20053;-57
2022/08/26 04:11:56;;;;;;;58.67;42.63;;;23.40;58.00;;;;;;5012481;28;20065;-56
2022/08/26 04:14:25;;;;;;;61.50;44.05;;;23.40;58.10;;;;;;5016563;28;20054;-56
2022/08/26 04:16:54;;;;;;;66.55;48.28;;;23.40;58.00;;;;;;5010038;28;20056;-56
2022/08/26 04:19:22;;;;;;;72.90;49.28;;;23.30;58.10;;;;;;5009498;28;20046;-57
2022/08/26 04:21:51;;;;;;;66.43;46.95;;;23.40;58.20;;;;;;5013632;28;20057;-58
2022/08/26 04:24:21;;;;;;;72.38;51.22;;;23.40;58.30;;;;;;5014666;28;20058;-57
2022/08/26 04:26:49;;;;;;;76.30;51.28;;;23.40;58.60;;;;;;5016475;28;20065;-57
2022/08/26 04:29:19;;;;;;;61.03;43.17;;;23.30;58.60;;;;;;5014711;28;20432;-57
2022/08/26 04:31:47;;;;;;;69.57;46.63;;;23.30;58.50;;;;;;5013186;28;20057;-56
2022/08/26 04:34:15;;;;;;;77.55;51.95;;;23.30;58.50;;;;;;5018013;28;20088;-58
2022/08/26 04:36:43;;;;;;;69.93;49.20;;;23.30;58.70;;;;;;5010625;28;20058;-57
2022/08/26 04:39:13;;;;;;;79.03;52.60;;;23.30;58.60;;;;;;5017409;28;20056;-57
2022/08/26 04:41:40;;;;;;;77.63;55.30;;;23.30;58.70;;;;;;5015235;28;20069;-57
2022/08/26 04:44:09;;;;;;;79.10;54.78;;;23.30;58.70;;;;;;5008631;28;20958;-58
2022/08/26 04:46:36;;;;;;;83.32;54.15;;;23.30;58.80;;;;;;5016145;28;20057;-57
2022/08/26 04:49:07;;;;;;;78.90;54.20;;;23.30;58.80;;;;;;5015018;28;20080;-58
2022/08/26 04:51:35;;;;;;;84.53;54.03;;;23.30;58.90;;;;;;5013844;28;20049;-58
2022/08/26 04:54:02;;;;;;;66.72;47.60;;;23.30;58.80;;;;;;5019250;28;20049;-57
2022/08/26 04:56:33;;;;;;;79.13;51.10;;;23.30;58.80;;;;;;5024736;28;20398;-57
2022/08/26 04:59:01;;;;;;;80.38;54.28;;;23.30;58.90;;;;;;5014020;28;20061;-57
2022/08/26 05:01:30;;;;;;;82.22;53.45;;;23.30;58.90;;;;;;5007757;28;20524;-57
2022/08/26 05:03:58;;;;;;;78.18;52.30;;;23.30;59.00;;;;;;5016226;28;20053;-58
2022/08/26 05:06:25;;;;;;;81.88;54.33;;;23.30;59.20;;;;;;5016634;28;20413;-56
2022/08/26 05:08:53;;;;;;;69.85;49.40;;;23.30;59.30;;;;;;5020288;28;20049;-57
2022/08/26 05:11:20;;;;;;;80.47;57.92;;;23.30;59.70;;;;;;5018611;28;20064;-57
2022/08/26 05:13:48;;;;;;;79.45;53.65;;;23.20;59.40;;;;;;5020767;28;20084;-58
2022/08/26 05:16:16;;;;;;;76.32;52.83;;;23.20;59.40;;;;;;5015061;28;20053;-56
2022/08/26 05:18:46;;;;;;;76.47;52.78;;;23.20;59.40;;;;;;5016610;28;20064;-55
2022/08/26 05:21:18;;;;;;;77.97;53.45;;;23.20;59.50;;;;;;5015591;28;20064;-57
2022/08/26 05:23:46;;;;;;;85.97;54.92;;;23.20;59.70;;;;;;5018577;28;20072;-57
2022/08/26 05:26:14;;;;;;;77.57;51.55;;;23.30;59.70;;;;;;5017469;28;20053;-58
2022/08/26 05:28:41;;;;;;;83.32;55.65;;;23.20;59.60;;;;;;5021492;28;20072;-57
2022/08/26 05:31:13;;;;;;;78.53;53.35;;;23.20;59.70;;;;;;5014114;28;20068;-57
2022/08/26 05:33:40;;;;;;;79.95;51.80;;;23.20;59.90;;;;;;5016773;28;20054;-57
2022/08/26 05:39:31;;;;;;;91.95;55.30;;;23.20;60.00;;;;;;5022068;28;20477;-57
2022/08/26 05:41:59;;;;;;;85.65;53.40;;;23.20;60.00;;;;;;5013428;28;20414;-58
2022/08/26 05:44:26;;;;;;;94.85;57.28;;;23.20;59.90;;;;;;5011570;28;20049;-58
2022/08/26 05:46:53;;;;;;;90.95;58.75;;;23.20;60.20;;;;;;5017732;28;20501;-57
2022/08/26 05:49:21;;;;;;;81.57;52.75;;;23.20;60.40;;;;;;5021069;28;20057;-58
2022/08/26 05:51:48;;;;;;;87.90;54.60;;;23.20;60.30;;;;;;5016186;28;20265;-56
2022/08/26 05:54:16;;;;;;;85.20;54.47;;;23.20;60.30;;;;;;5020760;28;20050;-57
2022/08/26 05:56:44;;;;;;;92.30;55.53;;;23.20;60.30;;;;;;5015221;28;20517;-57
2022/08/26 05:59:13;;;;;;;104.82;62.00;;;23.20;60.30;;;;;;5010247;28;20148;-59
2022/08/26 06:01:42;;;;;;;99.93;58.47;;;23.20;60.20;;;;;;5009425;28;20060;-57
2022/08/26 06:04:10;;;;;;;103.75;60.58;;;23.20;60.10;;;;;;5017020;28;20053;-58
2022/08/26 06:06:40;;;;;;;112.32;67.57;;;23.30;60.00;;;;;;5019626;28;20057;-57
2022/08/26 06:09:09;;;;;;;120.15;70.88;;;23.30;59.80;;;;;;5021197;28;20060;-58
2022/08/26 06:11:36;;;;;;;115.18;68.97;;;23.30;59.80;;;;;;5011188;28;20053;-58
2022/08/26 06:14:06;;;;;;;117.85;69.97;;;23.30;59.60;;;;;;5021858;28;20057;-57
2022/08/26 06:16:37;;;;;;;102.55;60.45;;;23.30;59.60;;;;;;5022498;28;20053;-58
2022/08/26 06:19:07;;;;;;;118.82;68.93;;;23.30;59.40;;;;;;5020953;28;20053;-57
2022/08/26 06:21:38;;;;;;;104.20;61.88;;;23.30;59.50;;;;;;5009078;28;20053;-56
2022/08/26 06:26:54;;;;;;;97.60;60.03;;;23.30;59.30;;;;;;5011281;28;20056;-58
2022/08/26 06:29:25;;;;;;;108.10;63.33;;;23.30;59.10;;;;;;5009224;28;20045;-57
2022/08/26 06:31:53;;;;;;;101.10;57.85;;;23.40;59.20;;;;;;5008524;28;20053;-56
2022/08/26 06:34:20;;;;;;;101.03;60.42;;;23.40;59.20;;;;;;5006911;28;20049;-58
2022/08/26 06:36:49;;;;;;;98.65;61.78;;;23.40;59.10;;;;;;5017495;28;20061;-57
2022/08/26 06:39:18;;;;;;;90.03;55.08;;;23.40;59.10;;;;;;5019818;28;20406;-58
2022/08/26 06:41:46;;;;;;;83.30;52.00;;;23.40;59.00;;;;;;5018040;28;20119;-58
2022/08/26 06:44:14;;;;;;;103.20;56.42;;;23.40;58.90;;;;;;5017695;28;20049;-58
2022/08/26 06:46:44;;;;;;;90.35;56.47;;;23.40;58.90;;;;;;5011692;28;20071;-60
2022/08/26 06:49:12;;;;;;;99.25;57.65;;;23.50;58.90;;;;;;5016363;28;20049;-58
2022/08/26 06:51:41;;;;;;;87.68;55.90;;;23.50;58.80;;;;;;5009435;28;20057;-49
2022/08/26 06:54:08;;;;;;;89.93;53.47;;;23.50;58.60;;;;;;5019464;28;20972;-58
2022/08/26 06:56:39;;;;;;;96.28;61.97;;;23.50;58.50;;;;;;5019282;28;20049;-56
2022/08/26 06:59:07;;;;;;;101.85;62.33;;;23.50;58.50;;;;;;5013747;28;20054;-61
2022/08/26 07:01:37;;;;;;;97.32;61.05;;;23.50;58.50;;;;;;5011522;28;20049;-56
2022/08/26 07:04:07;;;;;;;92.57;59.53;;;23.40;58.40;;;;;;5015005;28;20045;-58
2022/08/26 07:06:37;;;;;;;88.10;58.45;;;23.40;58.50;;;;;;5019761;28;20045;-60
2022/08/26 07:09:06;;;;;;;98.18;59.65;;;23.40;58.40;;;;;;5015887;28;20057;-58
2022/08/26 07:11:34;;;;;;;92.22;56.28;;;23.40;58.30;;;;;;5012652;28;20057;-58
2022/08/26 07:14:01;;;;;;;94.80;56.80;;;23.40;58.30;;;;;;5015453;28;20057;-59
2022/08/26 07:16:29;;;;;;;99.72;59.92;;;23.40;58.40;;;;;;5011968;28;20517;-59
2022/08/26 07:18:57;;;;;;;94.43;59.42;;;23.40;58.10;;;;;;5013167;28;20060;-54
2022/08/26 07:21:26;;;;;;;80.03;52.92;;;23.40;58.50;;;;;;5015592;28;20060;-57
2022/08/26 07:23:54;;;;;;;89.85;59.35;;;23.50;57.90;;;;;;5014131;28;20057;-57
2022/08/26 07:26:24;;;;;;;89.60;56.03;;;23.50;58.10;;;;;;5008629;28;20409;-59
2022/08/26 07:28:53;;;;;;;76.22;51.97;;;23.50;58.00;;;;;;5008795;28;20429;-58
2022/08/26 07:31:22;;;;;;;77.75;50.95;;;23.50;57.90;;;;;;5007435;28;20057;-57
2022/08/26 07:33:50;;;;;;;73.55;49.58;;;23.50;57.80;;;;;;5009060;28;20077;-59
2022/08/26 07:36:18;;;;;;;73.60;51.22;;;23.60;57.90;;;;;;5013671;28;20075;-58
2022/08/26 07:38:47;;;;;;;81.38;52.17;;;23.60;57.80;;;;;;5013273;28;20076;-57
2022/08/26 07:41:18;;;;;;;69.78;51.08;;;23.60;57.60;;;;;;5011293;28;20580;-59
2022/08/26 07:43:45;;;;;;;86.95;55.33;;;23.70;57.40;;;;;;5016269;28;20511;-58
2022/08/26 07:46:17;;;;;;;72.72;51.38;;;23.70;57.30;;;;;;5015418;28;20049;-58
2022/08/26 07:48:45;;;;;;;73.20;47.67;;;23.70;57.30;;;;;;5021810;28;20056;-58
2022/08/26 07:51:13;;;;;;;63.85;44.47;;;23.70;57.30;;;;;;5012605;28;20057;-60
2022/08/26 07:53:41;;;;;;;76.25;49.10;;;23.70;57.40;;;;;;5016281;28;20401;-58
2022/08/26 07:56:10;;;;;;;64.50;44.97;;;23.70;57.20;;;;;;5020216;28;20057;-58
2022/08/26 07:58:37;;;;;;;68.53;48.08;;;23.70;57.30;;;;;;5017519;28;20045;-58
2022/08/26 08:01:05;;;;;;;74.22;47.30;;;23.70;57.20;;;;;;5014759;28;20421;-59
2022/08/26 08:03:33;;;;;;;61.80;43.22;;;23.70;57.20;;;;;;5015143;28;20061;-58
2022/08/26 08:06:00;;;;;;;71.07;48.47;;;23.80;57.20;;;;;;5017574;28;20045;-60
2022/08/26 08:08:28;;;;;;;82.45;54.53;;;23.70;57.10;;;;;;5010716;28;20069;-59
2022/08/26 08:10:55;;;;;;;68.43;48.40;;;23.70;57.00;;;;;;5003879;28;20057;-58
2022/08/26 08:13:24;;;;;;;56.75;41.28;;;23.70;57.00;;;;;;5018314;28;20394;-61
2022/08/26 08:15:51;;;;;;;58.53;42.65;;;23.80;57.10;;;;;;5018040;28;20493;-59
2022/08/26 08:18:19;;;;;;;64.85;45.92;;;23.80;57.10;;;;;;5015131;28;20077;-53
2022/08/26 08:20:46;;;;;;;64.47;42.08;;;23.80;56.90;;;;;;5008829;28;20068;-59
2022/08/26 08:23:15;;;;;;;58.92;39.03;;;23.80;56.90;;;;;;5014175;28;20053;-59
2022/08/26 08:25:42;;;;;;;52.85;38.42;;;23.80;57.00;;;;;;5009858;28;20057;-57
2022/08/26 08:28:09;;;;;;;48.50;36.15;;;23.80;57.00;;;;;;5011805;28;20058;-60
2022/08/26 08:30:39;;;;;;;48.13;37.35;;;23.80;56.90;;;;;;5012705;28;20053;-58
2022/08/26 08:33:07;;;;;;;56.05;40.88;;;23.90;56.80;;;;;;5014601;28;20045;-61
2022/08/26 08:35:34;;;;;;;51.58;38.13;;;24.00;56.60;;;;;;5019559;28;20061;-59
2022/08/26 08:38:01;;;;;;;50.50;34.85;;;24.00;56.60;;;;;;5007331;28;20045;-57
2022/08/26 08:40:28;;;;;;;53.40;37.03;;;24.00;56.70;;;;;;5013087;28;20054;-60
2022/08/26 08:43:03;;;;;;;54.60;37.70;;;24.00;56.60;;;;;;5014042;28;20068;-59
2022/08/26 08:45:35;;;;;;;57.58;38.45;;;24.10;56.50;;;;;;5015622;28;20095;-59
2022/08/26 08:48:06;;;;;;;46.10;35.63;;;24.10;56.50;;;;;;5021131;28;20065;-61
2022/08/26 08:50:36;;;;;;;55.67;36.65;;;24.10;56.50;;;;;;5012144;28;20053;-58
2022/08/26 08:53:17;;;;;;;57.58;37.47;;;24.10;56.80;;;;;;5015220;28;20064;-58
2022/08/26 08:56:02;;;;;;;53.45;36.40;;;24.20;56.70;;;;;;5011211;28;20057;-59
2022/08/26 08:58:42;;;;;;;49.85;32.70;;;24.20;56.70;;;;;;5011668;28;20080;-57
2022/08/26 09:01:22;;;;;;;45.25;34.03;;;24.30;56.60;;;;;;5007636;28;20494;-57
2022/08/26 09:04:00;;;;;;;56.22;36.22;;;24.30;56.40;;;;;;5017085;28;20049;-58
2022/08/26 09:06:28;;;;;;;57.05;37.25;;;24.40;56.40;;;;;;5016079;28;20050;-58
2022/08/26 09:08:56;;;;;;;48.92;34.30;;;24.40;56.20;;;;;;5013138;28;20053;-58
2022/08/26 09:11:23;;;;;;;55.03;34.55;;;24.40;56.20;;;;;;5013125;28;20061;-58
2022/08/26 09:13:52;;;;;;;53.53;35.20;;;24.40;56.20;;;;;;5012389;28;20053;-59
2022/08/26 09:16:24;;;;;;;46.92;34.65;;;24.40;56.20;;;;;;5017657;28;20064;-59
2022/08/26 09:19:10;;;;;;;47.05;34.50;;;24.50;55.70;;;;;;5018963;28;20057;-57
2022/08/26 09:21:37;;;;;;;48.67;32.00;;;24.50;55.60;;;;;;5014184;28;20045;-58
2022/08/26 09:24:06;;;;;;;35.42;26.98;;;24.50;55.50;;;;;;5013474;28;20699;-57
2022/08/26 09:26:44;;;;;;;48.55;31.25;;;24.50;55.60;;;;;;5016661;28;20408;-57
2022/08/26 09:29:20;;;;;;;49.45;33.83;;;24.60;55.60;;;;;;5007505;28;20053;-57
2022/08/26 09:31:47;;;;;;;44.67;32.10;;;24.50;55.20;;;;;;5016368;28;20387;-58
2022/08/26 09:34:19;;;;;;;48.47;35.08;;;24.60;55.10;;;;;;5014733;28;20136;-57
2022/08/26 09:36:48;;;;;;;44.75;31.83;;;24.70;55.00;;;;;;5015103;28;20049;-57
2022/08/26 09:39:27;;;;;;;44.08;30.25;;;24.70;54.70;;;;;;5018480;28;20054;-57
2022/08/26 09:42:09;;;;;;;41.28;28.25;;;24.60;54.70;;;;;;5013185;28;20386;-58
2022/08/26 09:44:54;;;;;;;40.33;29.25;;;24.60;54.80;;;;;;5014706;28;20057;-57
2022/08/26 09:47:24;;;;;;;45.05;30.63;;;24.60;54.90;;;;;;5015685;28;20064;-58
2022/08/26 09:50:03;;;;;;;47.63;32.75;;;24.60;54.90;;;;;;5019278;28;20060;-57
2022/08/26 09:52:30;;;;;;;39.30;30.35;;;24.60;54.80;;;;;;5020455;28;20068;-54
2022/08/26 09:55:04;;;;;;;48.97;32.90;;;24.70;55.10;;;;;;5023260;28;20413;-58
2022/08/26 09:57:34;;;;;;;44.22;28.83;;;24.70;55.00;;;;;;5013664;28;20347;-58
2022/08/26 10:00:02;;;;;;;45.47;30.85;;;24.70;54.90;;;;;;5006516;28;20513;-60
2022/08/26 10:08:47;;;;;;;47.38;32.10;;;24.70;54.80;;;;;;4992487;28;20527;-60
2022/08/26 10:11:19;;;;;;;55.60;34.00;;;24.70;55.00;;;;;;5011610;28;20053;-58
2022/08/26 10:13:51;;;;;;;52.90;34.70;;;24.70;55.40;;;;;;5013566;28;20058;-57
2022/08/26 10:16:22;;;;;;;47.13;34.10;;;24.60;55.20;;;;;;5015180;28;20050;-54
2022/08/26 10:18:56;;;;;;;46.08;33.40;;;24.60;55.10;;;;;;5019212;28;20050;-57
2022/08/26 10:21:28;;;;;;;48.70;33.55;;;24.60;55.10;;;;;;5011167;28;20065;-57
2022/08/26 10:24:01;;;;;;;50.53;34.80;;;24.60;55.30;;;;;;5016283;28;20421;-58
2022/08/26 10:26:38;;;;;;;51.53;34.60;;;24.60;55.30;;;;;;5015991;28;20045;-59
2022/08/26 10:29:13;;;;;;;45.67;33.22;;;24.60;55.20;;;;;;5008122;28;20053;-58
2022/08/26 10:31:44;;;;;;;50.90;36.90;;;24.60;55.20;;;;;;5008823;28;20062;-58
2022/08/26 10:34:12;;;;;;;49.30;35.60;;;24.50;55.10;;;;;;5012539;28;20057;-57
2022/08/26 10:36:51;;;;;;;49.00;36.22;;;24.60;55.10;;;;;;5014337;28;20081;-58
2022/08/26 10:39:25;;;;;;;55.72;36.95;;;24.60;55.20;;;;;;5013753;28;20448;-58
2022/08/26 10:41:57;;;;;;;48.92;35.25;;;24.60;55.00;;;;;;5015622;28;20053;-60
2022/08/26 10:44:26;;;;;;;52.67;34.85;;;24.60;55.10;;;;;;5015517;28;20501;-59
2022/08/26 10:46:58;;;;;;;60.25;37.80;;;24.60;55.10;;;;;;5012983;28;20050;-59
2022/08/26 10:49:26;;;;;;;49.08;33.17;;;24.60;55.00;;;;;;5013355;28;20489;-58
2022/08/26 10:51:59;;;;;;;48.05;34.28;;;24.60;55.10;;;;;;5009478;28;20057;-57
2022/08/26 10:54:34;;;;;;;48.75;34.58;;;24.60;55.00;;;;;;5016065;28;20049;-58
2022/08/26 10:57:08;;;;;;;62.92;37.00;;;24.60;55.00;;;;;;5018563;28;20049;-55
2022/08/26 10:59:43;;;;;;;;;;;24.70;55.00;;;;;;5013181;28;20053;-54
2022/08/26 11:02:16;;;;;;;50.88;37.28;;;24.70;54.80;;;;;;5008387;28;19921;-59
2022/08/26 11:04:49;;;;;;;43.97;33.17;;;24.70;54.80;;;;;;5012543;28;20481;-59
2022/08/26 11:07:44;;;;;;;46.53;32.38;;;24.70;55.00;;;;;;5013792;28;20046;-61
2022/08/26 11:10:45;;;;;;;46.30;31.20;;;24.70;55.10;;;;;;4993229;28;20070;-58
2022/08/26 11:13:13;;;;;;;44.15;31.35;;;24.60;55.00;;;;;;5017034;28;20058;-60
2022/08/26 11:16:10;;;;;;;43.15;30.85;;;24.60;55.10;;;;;;5020523;28;20056;-60
2022/08/26 11:18:47;;;;;;;43.13;29.50;;;24.60;54.90;;;;;;5019915;28;20052;-58
2022/08/26 11:22:01;;;;;;;39.05;28.33;;;24.70;55.30;;;;;;5016167;28;20515;-57
2022/08/26 11:25:00;;;;;;;49.67;32.10;;;24.70;55.30;;;;;;5020991;28;20049;-56
2022/08/26 11:27:56;;;;;;;47.53;31.52;;;24.70;55.10;;;;;;5015460;28;20053;-55
2022/08/26 11:30:50;;;;;;;37.83;29.05;;;24.70;54.90;;;;;;5014624;28;20057;-58
2022/08/26 11:33:48;;;;;;;33.35;24.80;;;24.70;54.90;;;;;;5019607;28;20053;-60
2022/08/26 11:36:56;;;;;;;33.60;22.27;;;24.70;54.50;;;;;;4978896;28;20074;-59
2022/08/26 11:39:28;;;;;;;27.40;18.30;;;24.70;54.50;;;;;;4997301;28;20050;-54
2022/08/26 11:41:59;;;;;;;28.73;18.27;;;24.70;54.50;;;;;;5016047;28;20057;-57
2022/08/26 11:44:36;;;;;;;25.60;17.92;;;24.60;54.40;;;;;;5012099;28;20060;-57
2022/08/26 11:47:06;;;;;;;34.15;19.38;;;24.60;54.50;;;;;;5020983;28;20050;-60
2022/08/26 11:49:33;;;;;;;32.30;18.83;;;24.60;54.70;;;;;;5017680;28;20061;-59
2022/08/26 11:52:17;;;;;;;27.60;19.58;;;24.70;54.70;;;;;;5017870;28;20057;-57
2022/08/26 11:55:01;;;;;;;26.90;17.77;;;24.70;54.70;;;;;;5019105;28;20062;-59
2022/08/26 11:57:30;;;;;;;28.02;18.90;;;24.70;54.80;;;;;;5019786;28;20049;-59
2022/08/26 11:59:57;;;;;;;35.72;21.48;;;24.70;54.60;;;;;;5015506;28;20065;-55
2022/08/26 12:02:26;;;;;;;32.72;21.38;;;24.70;54.50;;;;;;5020125;28;20061;-59
2022/08/26 12:04:55;;;;;;;32.13;18.25;;;24.70;54.40;;;;;;5023558;28;20053;-59
2022/08/26 12:07:26;;;;;;;21.20;15.63;;;24.70;54.40;;;;;;5025252;28;20057;-60
2022/08/26 12:09:56;;;;;;;23.77;15.13;;;24.70;54.10;;;;;;5019515;28;20694;-59
2022/08/26 12:12:29;;;;;;;23.02;13.07;;;24.60;54.00;;;;;;5020737;28;20058;-61
2022/08/26 12:15:13;;;;;;;20.35;11.85;;;24.70;54.10;;;;;;5025246;28;20528;-58
2022/08/26 12:17:42;;;;;;;14.70;11.05;;;24.60;54.20;;;;;;5025251;28;20049;-56
2022/08/26 12:20:44;;;;;;;20.48;9.82;;;24.60;54.40;;;;;;5022179;28;21108;-58
2022/08/26 12:23:22;;;;;;;17.25;10.60;;;24.70;54.50;;;;;;5025390;28;20057;-58
2022/08/26 12:25:50;;;;;;;15.07;9.00;;;24.70;54.60;;;;;;5021236;28;20057;-61
2022/08/26 12:28:18;;;;;;;14.80;10.63;;;24.70;54.40;;;;;;5024865;28;20421;-59
2022/08/26 12:30:59;;;;;;;15.35;9.43;;;24.80;54.20;;;;;;5021410;28;20423;-57
2022/08/26 12:33:28;;;;;;;15.63;10.68;;;24.90;54.40;;;;;;5021431;28;20056;-60
2022/08/26 12:35:56;;;;;;;17.02;10.73;;;25.00;54.00;;;;;;5024055;28;20379;-60
2022/08/26 12:38:24;;;;;;;17.65;11.32;;;25.00;53.70;;;;;;5024970;28;20054;-60
2022/08/26 12:40:52;;;;;;;20.77;10.57;;;25.10;53.00;;;;;;5018974;28;20060;-58
2022/08/26 12:43:39;;;;;;;16.17;10.27;;;25.10;52.50;;;;;;5022197;28;20049;-55
2022/08/26 12:46:08;;;;;;;16.27;8.63;;;25.10;52.60;;;;;;5021866;28;20053;-57
2022/08/26 12:48:41;;;;;;;17.25;9.10;;;25.20;52.80;;;;;;5024136;28;20054;-57
2022/08/26 12:51:18;;;;;;;18.20;9.02;;;25.20;52.50;;;;;;5017492;28;22064;-56
2022/08/26 12:53:46;;;;;;;33.28;9.20;;;25.20;52.90;;;;;;5022396;28;20057;-57
2022/08/26 12:56:25;;;;;;;16.67;10.25;;;25.20;52.30;;;;;;5023916;28;20054;-57
2022/08/26 12:59:05;;;;;;;18.27;10.55;;;25.20;51.80;;;;;;5022921;28;20516;-59
2022/08/26 13:01:42;;;;;;;16.33;10.48;;;25.20;51.70;;;;;;5018982;28;20053;-61